sensor_id;sensor_type;location;lat;lon;timestamp;P1;durP1;ratioP1;P2;durP2;ratioP2
9496;SDS011;4786;51.270;4.456;2024-03-23T00:52:50;10.23;;;4.60;;
9496;SDS011;4786;51.270;4.456;2024-03-23T00:55:16;11.90;;;4.07;;
9496;SDS011;4786;51.270;4.456;2024-03-23T00:57:42;13.73;;;4.77;;
9496;SDS011;4786;51.270;4.456;2024-03-23T01:00:07;10.53;;;4.57;;
9496;SDS011;4786;51.270;4.456;2024-03-23T01:02:35;8.03;;;4.23;;
9496;SDS011;4786;51.270;4.456;2024-03-23T01:05:01;11.57;;;4.57;;
9496;SDS011;4786;51.270;4.456;2024-03-23T01:07:27;11.60;;;4.83;;
9496;SDS011;4786;51.270;4.456;2024-03-23T01:09:52;10.57;;;4.47;;
9496;SDS011;4786;51.270;4.456;2024-03-23T01:12:18;11.47;;;5.40;;
9496;SDS011;4786;51.270;4.456;2024-03-23T01:14:44;10.93;;;5.10;;
9496;SDS011;4786;51.270;4.456;2024-03-23T01:17:09;12.83;;;5.10;;
9496;SDS011;4786;51.270;4.456;2024-03-23T01:19:35;10.40;;;5.40;;
9496;SDS011;4786;51.270;4.456;2024-03-23T01:22:01;11.50;;;5.20;;
9496;SDS011;4786;51.270;4.456;2024-03-23T01:24:26;12.83;;;5.53;;
9496;SDS011;4786;51.270;4.456;2024-03-23T01:26:52;12.30;;;5.40;;
9496;SDS011;4786;51.270;4.456;2024-03-23T01:29:18;11.07;;;5.70;;
9496;SDS011;4786;51.270;4.456;2024-03-23T01:31:43;13.90;;;6.00;;
9496;SDS011;4786;51.270;4.456;2024-03-23T01:34:09;11.57;;;6.13;;
9496;SDS011;4786;51.270;4.456;2024-03-23T01:36:34;11.57;;;5.77;;
9496;SDS011;4786;51.270;4.456;2024-03-23T01:39:00;15.40;;;6.13;;
9496;SDS011;4786;51.270;4.456;2024-03-23T01:41:26;13.20;;;5.97;;
9496;SDS011;4786;51.270;4.456;2024-03-23T01:43:52;11.10;;;6.10;;
9496;SDS011;4786;51.270;4.456;2024-03-23T01:46:20;11.87;;;6.47;;
9496;SDS011;4786;51.270;4.456;2024-03-23T01:48:46;12.57;;;6.30;;
9496;SDS011;4786;51.270;4.456;2024-03-23T01:51:12;12.23;;;6.20;;
9496;SDS011;4786;51.270;4.456;2024-03-23T01:53:38;13.00;;;6.80;;
9496;SDS011;4786;51.270;4.456;2024-03-23T01:56:04;12.87;;;6.83;;
9496;SDS011;4786;51.270;4.456;2024-03-23T01:58:30;9.73;;;6.33;;
9496;SDS011;4786;51.270;4.456;2024-03-23T02:00:57;12.10;;;6.70;;
9496;SDS011;4786;51.270;4.456;2024-03-23T02:03:23;10.57;;;6.83;;
9496;SDS011;4786;51.270;4.456;2024-03-23T02:05:50;12.10;;;6.90;;
9496;SDS011;4786;51.270;4.456;2024-03-23T02:08:17;10.43;;;6.47;;
9496;SDS011;4786;51.270;4.456;2024-03-23T02:10:44;9.57;;;6.30;;
9496;SDS011;4786;51.270;4.456;2024-03-23T02:13:10;11.77;;;6.23;;
9496;SDS011;4786;51.270;4.456;2024-03-23T02:15:35;9.17;;;6.00;;
9496;SDS011;4786;51.270;4.456;2024-03-23T02:18:01;11.50;;;6.10;;
9496;SDS011;4786;51.270;4.456;2024-03-23T02:20:27;13.23;;;6.10;;
9496;SDS011;4786;51.270;4.456;2024-03-23T02:22:53;9.03;;;5.97;;
9496;SDS011;4786;51.270;4.456;2024-03-23T02:25:18;13.90;;;6.53;;
9496;SDS011;4786;51.270;4.456;2024-03-23T02:27:44;11.67;;;5.87;;
9496;SDS011;4786;51.270;4.456;2024-03-23T02:30:10;11.10;;;5.43;;
9496;SDS011;4786;51.270;4.456;2024-03-23T02:32:35;9.43;;;5.43;;
9496;SDS011;4786;51.270;4.456;2024-03-23T02:35:01;16.33;;;5.27;;
9496;SDS011;4786;51.270;4.456;2024-03-23T02:37:27;9.83;;;5.37;;
9496;SDS011;4786;51.270;4.456;2024-03-23T02:39:52;13.13;;;5.47;;
9496;SDS011;4786;51.270;4.456;2024-03-23T02:42:18;8.20;;;4.47;;
9496;SDS011;4786;51.270;4.456;2024-03-23T02:44:45;9.20;;;4.73;;
9496;SDS011;4786;51.270;4.456;2024-03-23T02:47:10;13.00;;;5.07;;
9496;SDS011;4786;51.270;4.456;2024-03-23T02:49:36;10.87;;;4.67;;
9496;SDS011;4786;51.270;4.456;2024-03-23T02:52:02;9.57;;;4.17;;
9496;SDS011;4786;51.270;4.456;2024-03-23T02:54:28;10.43;;;4.17;;
9496;SDS011;4786;51.270;4.456;2024-03-23T02:56:53;7.20;;;4.30;;
9496;SDS011;4786;51.270;4.456;2024-03-23T02:59:19;9.60;;;4.47;;
9496;SDS011;4786;51.270;4.456;2024-03-23T03:01:44;8.90;;;4.50;;
9496;SDS011;4786;51.270;4.456;2024-03-23T03:04:10;9.97;;;3.87;;
9496;SDS011;4786;51.270;4.456;2024-03-23T03:06:36;9.60;;;4.07;;
9496;SDS011;4786;51.270;4.456;2024-03-23T03:09:01;12.00;;;4.07;;
9496;SDS011;4786;51.270;4.456;2024-03-23T03:11:27;7.80;;;4.07;;
9496;SDS011;4786;51.270;4.456;2024-03-23T03:13:53;7.50;;;3.53;;
9496;SDS011;4786;51.270;4.456;2024-03-23T03:16:19;8.00;;;3.73;;
9496;SDS011;4786;51.270;4.456;2024-03-23T03:18:44;9.23;;;3.50;;
9496;SDS011;4786;51.270;4.456;2024-03-23T03:21:11;8.43;;;3.60;;
9496;SDS011;4786;51.270;4.456;2024-03-23T03:23:37;12.97;;;3.83;;
9496;SDS011;4786;51.270;4.456;2024-03-23T03:26:04;10.93;;;3.70;;
9496;SDS011;4786;51.270;4.456;2024-03-23T03:28:30;8.67;;;3.53;;
9496;SDS011;4786;51.270;4.456;2024-03-23T03:30:57;11.87;;;3.90;;
9496;SDS011;4786;51.270;4.456;2024-03-23T03:33:26;13.80;;;4.23;;
9496;SDS011;4786;51.270;4.456;2024-03-23T03:35:52;10.10;;;4.23;;
9496;SDS011;4786;51.270;4.456;2024-03-23T03:38:18;15.80;;;4.10;;
9496;SDS011;4786;51.270;4.456;2024-03-23T03:40:44;8.63;;;3.67;;
9496;SDS011;4786;51.270;4.456;2024-03-23T03:43:10;12.07;;;3.83;;
9496;SDS011;4786;51.270;4.456;2024-03-23T03:45:36;7.30;;;3.33;;
9496;SDS011;4786;51.270;4.456;2024-03-23T03:48:02;9.60;;;3.40;;
9496;SDS011;4786;51.270;4.456;2024-03-23T03:50:27;9.23;;;3.63;;
9496;SDS011;4786;51.270;4.456;2024-03-23T03:52:53;6.87;;;3.13;;
9496;SDS011;4786;51.270;4.456;2024-03-23T03:55:19;11.03;;;3.43;;
9496;SDS011;4786;51.270;4.456;2024-03-23T03:57:44;10.93;;;3.10;;
9496;SDS011;4786;51.270;4.456;2024-03-23T04:00:10;6.57;;;2.77;;
9496;SDS011;4786;51.270;4.456;2024-03-23T04:02:39;8.63;;;3.37;;
9496;SDS011;4786;51.270;4.456;2024-03-23T04:05:05;9.07;;;2.70;;
9496;SDS011;4786;51.270;4.456;2024-03-23T04:07:31;5.90;;;2.53;;
9496;SDS011;4786;51.270;4.456;2024-03-23T04:09:57;8.40;;;2.80;;
9496;SDS011;4786;51.270;4.456;2024-03-23T04:12:23;9.67;;;2.93;;
9496;SDS011;4786;51.270;4.456;2024-03-23T04:14:49;6.37;;;2.30;;
9496;SDS011;4786;51.270;4.456;2024-03-23T04:17:14;9.83;;;3.27;;
9496;SDS011;4786;51.270;4.456;2024-03-23T04:19:40;5.93;;;2.50;;
9496;SDS011;4786;51.270;4.456;2024-03-23T04:22:06;7.33;;;2.77;;
9496;SDS011;4786;51.270;4.456;2024-03-23T04:24:32;8.77;;;2.90;;
9496;SDS011;4786;51.270;4.456;2024-03-23T04:26:57;7.37;;;3.13;;
9496;SDS011;4786;51.270;4.456;2024-03-23T04:29:23;7.67;;;3.07;;
9496;SDS011;4786;51.270;4.456;2024-03-23T04:31:49;8.60;;;3.10;;
9496;SDS011;4786;51.270;4.456;2024-03-23T04:34:14;7.70;;;2.80;;
9496;SDS011;4786;51.270;4.456;2024-03-23T04:36:40;10.90;;;3.90;;
9496;SDS011;4786;51.270;4.456;2024-03-23T04:39:05;7.60;;;3.27;;
9496;SDS011;4786;51.270;4.456;2024-03-23T04:41:33;10.80;;;3.73;;
9496;SDS011;4786;51.270;4.456;2024-03-23T04:44:00;7.77;;;3.10;;
9496;SDS011;4786;51.270;4.456;2024-03-23T04:46:26;11.40;;;4.07;;
9496;SDS011;4786;51.270;4.456;2024-03-23T04:48:51;10.27;;;4.03;;
9496;SDS011;4786;51.270;4.456;2024-03-23T04:51:21;10.70;;;3.60;;
9496;SDS011;4786;51.270;4.456;2024-03-23T04:53:49;10.73;;;4.03;;
9496;SDS011;4786;51.270;4.456;2024-03-23T04:56:16;10.30;;;3.80;;
9496;SDS011;4786;51.270;4.456;2024-03-23T04:58:42;10.50;;;3.43;;
9496;SDS011;4786;51.270;4.456;2024-03-23T05:01:08;9.00;;;3.60;;
9496;SDS011;4786;51.270;4.456;2024-03-23T05:03:36;10.20;;;3.50;;
9496;SDS011;4786;51.270;4.456;2024-03-23T05:06:01;8.27;;;3.40;;
9496;SDS011;4786;51.270;4.456;2024-03-23T05:08:27;9.70;;;3.60;;
9496;SDS011;4786;51.270;4.456;2024-03-23T05:10:52;9.77;;;3.67;;
9496;SDS011;4786;51.270;4.456;2024-03-23T05:13:18;10.40;;;3.60;;
9496;SDS011;4786;51.270;4.456;2024-03-23T05:15:44;12.57;;;4.10;;
9496;SDS011;4786;51.270;4.456;2024-03-23T05:18:15;11.90;;;3.77;;
9496;SDS011;4786;51.270;4.456;2024-03-23T05:20:41;16.37;;;3.90;;
9496;SDS011;4786;51.270;4.456;2024-03-23T05:23:06;14.53;;;4.10;;
9496;SDS011;4786;51.270;4.456;2024-03-23T05:25:32;11.30;;;4.23;;
9496;SDS011;4786;51.270;4.456;2024-03-23T05:27:57;13.80;;;3.73;;
9496;SDS011;4786;51.270;4.456;2024-03-23T05:30:23;11.57;;;4.10;;
9496;SDS011;4786;51.270;4.456;2024-03-23T05:32:49;12.37;;;4.27;;
9496;SDS011;4786;51.270;4.456;2024-03-23T05:35:15;13.20;;;3.80;;
9496;SDS011;4786;51.270;4.456;2024-03-23T05:37:41;10.87;;;3.90;;
9496;SDS011;4786;51.270;4.456;2024-03-23T05:40:07;14.83;;;3.60;;
9496;SDS011;4786;51.270;4.456;2024-03-23T05:42:34;11.90;;;3.60;;
9496;SDS011;4786;51.270;4.456;2024-03-23T05:45:00;11.47;;;3.60;;
9496;SDS011;4786;51.270;4.456;2024-03-23T05:47:25;12.87;;;3.57;;
9496;SDS011;4786;51.270;4.456;2024-03-23T05:49:51;12.37;;;3.60;;
9496;SDS011;4786;51.270;4.456;2024-03-23T05:52:17;9.40;;;3.13;;
9496;SDS011;4786;51.270;4.456;2024-03-23T05:54:42;10.27;;;3.60;;
9496;SDS011;4786;51.270;4.456;2024-03-23T05:57:08;13.53;;;3.40;;
9496;SDS011;4786;51.270;4.456;2024-03-23T05:59:34;9.97;;;3.50;;
9496;SDS011;4786;51.270;4.456;2024-03-23T06:02:00;12.43;;;3.87;;
9496;SDS011;4786;51.270;4.456;2024-03-23T06:04:26;11.33;;;3.67;;
9496;SDS011;4786;51.270;4.456;2024-03-23T06:06:51;14.83;;;3.73;;
9496;SDS011;4786;51.270;4.456;2024-03-23T06:09:17;16.53;;;4.33;;
9496;SDS011;4786;51.270;4.456;2024-03-23T06:11:44;16.97;;;4.27;;
9496;SDS011;4786;51.270;4.456;2024-03-23T06:14:10;10.00;;;2.97;;
9496;SDS011;4786;51.270;4.456;2024-03-23T06:16:35;12.13;;;3.37;;
9496;SDS011;4786;51.270;4.456;2024-03-23T06:19:01;13.60;;;3.50;;
9496;SDS011;4786;51.270;4.456;2024-03-23T06:21:29;13.33;;;3.80;;
9496;SDS011;4786;51.270;4.456;2024-03-23T06:23:55;12.30;;;3.50;;
9496;SDS011;4786;51.270;4.456;2024-03-23T06:26:21;12.73;;;3.30;;
9496;SDS011;4786;51.270;4.456;2024-03-23T06:28:47;10.87;;;3.30;;
9496;SDS011;4786;51.270;4.456;2024-03-23T06:31:13;10.17;;;3.50;;
9496;SDS011;4786;51.270;4.456;2024-03-23T06:33:39;8.53;;;3.00;;
9496;SDS011;4786;51.270;4.456;2024-03-23T06:36:07;12.63;;;3.53;;
9496;SDS011;4786;51.270;4.456;2024-03-23T06:38:34;11.97;;;3.70;;
9496;SDS011;4786;51.270;4.456;2024-03-23T06:41:02;10.43;;;2.53;;
9496;SDS011;4786;51.270;4.456;2024-03-23T06:43:28;10.67;;;3.37;;
9496;SDS011;4786;51.270;4.456;2024-03-23T06:45:54;10.50;;;3.30;;
9496;SDS011;4786;51.270;4.456;2024-03-23T06:48:20;10.93;;;3.10;;
9496;SDS011;4786;51.270;4.456;2024-03-23T06:50:46;10.93;;;3.40;;
9496;SDS011;4786;51.270;4.456;2024-03-23T06:53:12;12.47;;;4.10;;
9496;SDS011;4786;51.270;4.456;2024-03-23T06:55:38;11.87;;;3.90;;
9496;SDS011;4786;51.270;4.456;2024-03-23T06:58:04;14.43;;;3.57;;
9496;SDS011;4786;51.270;4.456;2024-03-23T07:00:30;10.97;;;3.90;;
9496;SDS011;4786;51.270;4.456;2024-03-23T07:02:57;13.60;;;3.57;;
9496;SDS011;4786;51.270;4.456;2024-03-23T07:05:22;13.43;;;3.63;;
9496;SDS011;4786;51.270;4.456;2024-03-23T07:07:48;12.27;;;3.30;;
9496;SDS011;4786;51.270;4.456;2024-03-23T07:10:14;11.17;;;3.40;;
9496;SDS011;4786;51.270;4.456;2024-03-23T07:12:39;7.97;;;2.90;;
9496;SDS011;4786;51.270;4.456;2024-03-23T07:15:05;11.07;;;3.20;;
9496;SDS011;4786;51.270;4.456;2024-03-23T07:17:31;10.07;;;3.07;;
9496;SDS011;4786;51.270;4.456;2024-03-23T07:19:58;8.47;;;2.70;;
9496;SDS011;4786;51.270;4.456;2024-03-23T07:22:23;9.97;;;3.17;;
9496;SDS011;4786;51.270;4.456;2024-03-23T07:24:49;15.93;;;3.83;;
9496;SDS011;4786;51.270;4.456;2024-03-23T07:27:15;9.80;;;3.33;;
9496;SDS011;4786;51.270;4.456;2024-03-23T07:29:40;9.90;;;3.10;;
9496;SDS011;4786;51.270;4.456;2024-03-23T07:32:06;11.43;;;2.83;;
9496;SDS011;4786;51.270;4.456;2024-03-23T07:34:31;9.37;;;2.57;;
9496;SDS011;4786;51.270;4.456;2024-03-23T07:36:57;10.13;;;3.43;;
9496;SDS011;4786;51.270;4.456;2024-03-23T07:39:23;9.07;;;2.90;;
9496;SDS011;4786;51.270;4.456;2024-03-23T07:41:49;13.63;;;3.63;;
9496;SDS011;4786;51.270;4.456;2024-03-23T07:44:15;12.83;;;3.60;;
9496;SDS011;4786;51.270;4.456;2024-03-23T07:46:41;8.03;;;3.13;;
9496;SDS011;4786;51.270;4.456;2024-03-23T07:49:06;10.43;;;2.97;;
9496;SDS011;4786;51.270;4.456;2024-03-23T07:51:32;11.67;;;3.07;;
9496;SDS011;4786;51.270;4.456;2024-03-23T07:53:58;15.83;;;3.20;;
9496;SDS011;4786;51.270;4.456;2024-03-23T07:56:24;11.83;;;3.20;;
9496;SDS011;4786;51.270;4.456;2024-03-23T07:58:50;10.80;;;2.90;;
9496;SDS011;4786;51.270;4.456;2024-03-23T08:01:16;13.00;;;3.17;;
9496;SDS011;4786;51.270;4.456;2024-03-23T08:03:45;11.83;;;3.43;;
9496;SDS011;4786;51.270;4.456;2024-03-23T08:06:15;13.83;;;3.07;;
9496;SDS011;4786;51.270;4.456;2024-03-23T08:08:43;5.40;;;2.00;;
9496;SDS011;4786;51.270;4.456;2024-03-23T08:11:10;5.80;;;1.83;;
9496;SDS011;4786;51.270;4.456;2024-03-23T08:13:38;5.47;;;1.97;;
9496;SDS011;4786;51.270;4.456;2024-03-23T08:16:05;6.57;;;1.93;;
9496;SDS011;4786;51.270;4.456;2024-03-23T08:18:31;6.83;;;2.50;;
9496;SDS011;4786;51.270;4.456;2024-03-23T08:20:57;8.90;;;2.70;;
9496;SDS011;4786;51.270;4.456;2024-03-23T08:23:33;10.70;;;2.60;;
9496;SDS011;4786;51.270;4.456;2024-03-23T08:26:01;9.73;;;3.00;;
9496;SDS011;4786;51.270;4.456;2024-03-23T08:28:31;11.83;;;3.27;;
9496;SDS011;4786;51.270;4.456;2024-03-23T08:31:00;10.63;;;3.87;;
9496;SDS011;4786;51.270;4.456;2024-03-23T08:33:30;9.83;;;3.83;;
9496;SDS011;4786;51.270;4.456;2024-03-23T08:35:57;10.63;;;3.90;;
9496;SDS011;4786;51.270;4.456;2024-03-23T08:38:25;10.10;;;3.37;;
9496;SDS011;4786;51.270;4.456;2024-03-23T08:41:07;12.83;;;3.23;;
9496;SDS011;4786;51.270;4.456;2024-03-23T08:46:04;12.27;;;3.07;;
9496;SDS011;4786;51.270;4.456;2024-03-23T08:48:32;11.07;;;3.50;;
9496;SDS011;4786;51.270;4.456;2024-03-23T08:51:05;12.70;;;3.37;;
9496;SDS011;4786;51.270;4.456;2024-03-23T08:53:32;9.77;;;3.20;;
9496;SDS011;4786;51.270;4.456;2024-03-23T08:56:00;14.70;;;3.67;;
9496;SDS011;4786;51.270;4.456;2024-03-23T08:58:26;10.80;;;3.20;;
9496;SDS011;4786;51.270;4.456;2024-03-23T09:00:54;11.00;;;3.27;;
9496;SDS011;4786;51.270;4.456;2024-03-23T09:03:23;7.77;;;2.77;;
9496;SDS011;4786;51.270;4.456;2024-03-23T09:05:49;12.10;;;3.07;;
9496;SDS011;4786;51.270;4.456;2024-03-23T09:08:16;11.17;;;2.60;;
9496;SDS011;4786;51.270;4.456;2024-03-23T09:10:41;13.50;;;2.57;;
9496;SDS011;4786;51.270;4.456;2024-03-23T09:13:07;8.47;;;2.13;;
9496;SDS011;4786;51.270;4.456;2024-03-23T09:15:34;5.40;;;1.80;;
9496;SDS011;4786;51.270;4.456;2024-03-23T09:18:01;4.90;;;1.87;;
9496;SDS011;4786;51.270;4.456;2024-03-23T09:20:27;5.17;;;1.80;;
9496;SDS011;4786;51.270;4.456;2024-03-23T09:22:53;5.30;;;1.60;;
9496;SDS011;4786;51.270;4.456;2024-03-23T09:25:19;5.93;;;2.03;;
9496;SDS011;4786;51.270;4.456;2024-03-23T09:27:47;4.53;;;1.80;;
9496;SDS011;4786;51.270;4.456;2024-03-23T09:30:13;4.23;;;1.90;;
9496;SDS011;4786;51.270;4.456;2024-03-23T09:32:46;4.73;;;1.80;;
9496;SDS011;4786;51.270;4.456;2024-03-23T09:35:13;8.27;;;2.40;;
9496;SDS011;4786;51.270;4.456;2024-03-23T09:37:38;7.60;;;2.50;;
9496;SDS011;4786;51.270;4.456;2024-03-23T09:40:05;12.33;;;2.43;;
9496;SDS011;4786;51.270;4.456;2024-03-23T09:42:34;7.97;;;2.53;;
9496;SDS011;4786;51.270;4.456;2024-03-23T09:45:00;10.60;;;2.80;;
9496;SDS011;4786;51.270;4.456;2024-03-23T09:47:27;12.97;;;2.90;;
9496;SDS011;4786;51.270;4.456;2024-03-23T09:49:53;7.67;;;2.70;;
9496;SDS011;4786;51.270;4.456;2024-03-23T09:52:20;8.37;;;3.00;;
9496;SDS011;4786;51.270;4.456;2024-03-23T09:54:45;9.47;;;2.80;;
9496;SDS011;4786;51.270;4.456;2024-03-23T09:57:11;6.93;;;2.50;;
9496;SDS011;4786;51.270;4.456;2024-03-23T09:59:37;9.93;;;2.87;;
9496;SDS011;4786;51.270;4.456;2024-03-23T10:02:02;9.87;;;2.83;;
9496;SDS011;4786;51.270;4.456;2024-03-23T10:04:38;13.40;;;2.87;;
9496;SDS011;4786;51.270;4.456;2024-03-23T10:07:11;10.23;;;3.00;;
9496;SDS011;4786;51.270;4.456;2024-03-23T10:09:38;8.57;;;2.60;;
9496;SDS011;4786;51.270;4.456;2024-03-23T10:12:08;11.93;;;2.70;;
9496;SDS011;4786;51.270;4.456;2024-03-23T10:14:38;9.37;;;2.60;;
9496;SDS011;4786;51.270;4.456;2024-03-23T10:19:47;9.67;;;2.80;;
9496;SDS011;4786;51.270;4.456;2024-03-23T10:22:20;10.07;;;2.60;;
9496;SDS011;4786;51.270;4.456;2024-03-23T10:24:48;9.33;;;2.87;;
9496;SDS011;4786;51.270;4.456;2024-03-23T10:27:18;10.27;;;2.77;;
9496;SDS011;4786;51.270;4.456;2024-03-23T10:29:48;7.67;;;2.67;;
9496;SDS011;4786;51.270;4.456;2024-03-23T10:32:15;8.37;;;2.37;;
9496;SDS011;4786;51.270;4.456;2024-03-23T10:34:42;13.60;;;2.13;;
9496;SDS011;4786;51.270;4.456;2024-03-23T10:37:08;6.50;;;1.83;;
9496;SDS011;4786;51.270;4.456;2024-03-23T10:39:35;5.73;;;2.10;;
9496;SDS011;4786;51.270;4.456;2024-03-23T10:42:06;5.43;;;1.70;;
9496;SDS011;4786;51.270;4.456;2024-03-23T10:44:36;4.87;;;1.80;;
9496;SDS011;4786;51.270;4.456;2024-03-23T10:47:03;4.43;;;1.43;;
9496;SDS011;4786;51.270;4.456;2024-03-23T10:49:31;4.93;;;1.60;;
9496;SDS011;4786;51.270;4.456;2024-03-23T10:51:58;4.40;;;1.73;;
9496;SDS011;4786;51.270;4.456;2024-03-23T10:54:28;4.47;;;1.50;;
9496;SDS011;4786;51.270;4.456;2024-03-23T10:56:59;4.37;;;1.40;;
9496;SDS011;4786;51.270;4.456;2024-03-23T10:59:26;5.50;;;1.20;;
9496;SDS011;4786;51.270;4.456;2024-03-23T11:01:55;2.80;;;1.20;;
9496;SDS011;4786;51.270;4.456;2024-03-23T11:06:59;1.40;;;1.10;;
9496;SDS011;4786;51.270;4.456;2024-03-23T11:14:44;3.07;;;1.50;;
9496;SDS011;4786;51.270;4.456;2024-03-23T11:17:10;5.17;;;1.80;;
9496;SDS011;4786;51.270;4.456;2024-03-23T11:19:36;4.13;;;1.73;;
9496;SDS011;4786;51.270;4.456;2024-03-23T11:22:03;7.13;;;2.00;;
9496;SDS011;4786;51.270;4.456;2024-03-23T11:24:30;13.03;;;2.10;;
9496;SDS011;4786;51.270;4.456;2024-03-23T11:26:56;6.17;;;2.27;;
9496;SDS011;4786;51.270;4.456;2024-03-23T11:29:25;6.67;;;2.00;;
9496;SDS011;4786;51.270;4.456;2024-03-23T11:31:51;8.07;;;2.17;;
9496;SDS011;4786;51.270;4.456;2024-03-23T11:34:18;7.90;;;2.30;;
9496;SDS011;4786;51.270;4.456;2024-03-23T11:36:45;5.17;;;2.10;;
9496;SDS011;4786;51.270;4.456;2024-03-23T11:39:20;7.80;;;2.10;;
9496;SDS011;4786;51.270;4.456;2024-03-23T11:41:50;2.57;;;1.23;;
9496;SDS011;4786;51.270;4.456;2024-03-23T11:44:19;3.07;;;1.07;;
9496;SDS011;4786;51.270;4.456;2024-03-23T11:46:47;2.57;;;1.33;;
9496;SDS011;4786;51.270;4.456;2024-03-23T11:49:26;5.30;;;1.80;;
9496;SDS011;4786;51.270;4.456;2024-03-23T11:51:54;4.00;;;1.60;;
9496;SDS011;4786;51.270;4.456;2024-03-23T11:54:21;4.73;;;1.50;;
9496;SDS011;4786;51.270;4.456;2024-03-23T11:57:00;4.73;;;1.77;;
9496;SDS011;4786;51.270;4.456;2024-03-23T11:59:36;5.70;;;1.70;;
9496;SDS011;4786;51.270;4.456;2024-03-23T12:02:06;3.60;;;1.47;;
9496;SDS011;4786;51.270;4.456;2024-03-23T12:04:36;3.43;;;1.60;;
9496;SDS011;4786;51.270;4.456;2024-03-23T12:07:21;5.47;;;2.13;;
9496;SDS011;4786;51.270;4.456;2024-03-23T12:09:47;6.03;;;1.67;;
9496;SDS011;4786;51.270;4.456;2024-03-23T12:12:33;4.00;;;1.80;;
9496;SDS011;4786;51.270;4.456;2024-03-23T12:15:03;6.10;;;1.80;;
9496;SDS011;4786;51.270;4.456;2024-03-23T12:17:31;5.47;;;1.90;;
9496;SDS011;4786;51.270;4.456;2024-03-23T12:19:57;5.73;;;2.17;;
9496;SDS011;4786;51.270;4.456;2024-03-23T12:22:23;4.43;;;1.50;;
9496;SDS011;4786;51.270;4.456;2024-03-23T12:24:49;3.47;;;1.60;;
9496;SDS011;4786;51.270;4.456;2024-03-23T12:27:15;4.53;;;1.40;;
9496;SDS011;4786;51.270;4.456;2024-03-23T12:29:41;5.60;;;1.93;;
9496;SDS011;4786;51.270;4.456;2024-03-23T12:32:08;6.17;;;2.10;;
9496;SDS011;4786;51.270;4.456;2024-03-23T12:34:34;7.40;;;1.70;;
9496;SDS011;4786;51.270;4.456;2024-03-23T12:37:00;4.27;;;1.87;;
9496;SDS011;4786;51.270;4.456;2024-03-23T12:39:25;4.47;;;2.27;;
9496;SDS011;4786;51.270;4.456;2024-03-23T12:41:52;6.70;;;2.03;;
9496;SDS011;4786;51.270;4.456;2024-03-23T12:44:18;8.20;;;2.57;;
9496;SDS011;4786;51.270;4.456;2024-03-23T12:46:44;12.17;;;2.80;;
9496;SDS011;4786;51.270;4.456;2024-03-23T12:49:10;9.00;;;2.73;;
9496;SDS011;4786;51.270;4.456;2024-03-23T12:51:36;9.73;;;3.10;;
9496;SDS011;4786;51.270;4.456;2024-03-23T12:54:02;7.17;;;2.00;;
9496;SDS011;4786;51.270;4.456;2024-03-23T12:56:28;6.10;;;2.07;;
9496;SDS011;4786;51.270;4.456;2024-03-23T12:58:54;4.90;;;1.93;;
9496;SDS011;4786;51.270;4.456;2024-03-23T13:01:22;8.17;;;2.33;;
9496;SDS011;4786;51.270;4.456;2024-03-23T13:03:48;5.57;;;2.10;;
9496;SDS011;4786;51.270;4.456;2024-03-23T13:06:14;6.73;;;1.83;;
9496;SDS011;4786;51.270;4.456;2024-03-23T13:08:41;5.33;;;2.00;;
9496;SDS011;4786;51.270;4.456;2024-03-23T13:11:09;9.57;;;2.63;;
9496;SDS011;4786;51.270;4.456;2024-03-23T13:13:35;6.03;;;2.07;;
9496;SDS011;4786;51.270;4.456;2024-03-23T13:16:01;8.43;;;2.50;;
9496;SDS011;4786;51.270;4.456;2024-03-23T13:18:28;8.83;;;2.47;;
9496;SDS011;4786;51.270;4.456;2024-03-23T13:20:54;6.17;;;2.00;;
9496;SDS011;4786;51.270;4.456;2024-03-23T13:23:20;7.97;;;2.60;;
9496;SDS011;4786;51.270;4.456;2024-03-23T13:25:49;4.77;;;2.07;;
9496;SDS011;4786;51.270;4.456;2024-03-23T13:28:19;4.20;;;1.67;;
9496;SDS011;4786;51.270;4.456;2024-03-23T13:33:20;4.37;;;1.57;;
9496;SDS011;4786;51.270;4.456;2024-03-23T13:35:53;3.43;;;1.00;;
9496;SDS011;4786;51.270;4.456;2024-03-23T13:38:20;2.87;;;1.10;;
9496;SDS011;4786;51.270;4.456;2024-03-23T13:40:56;1.73;;;0.80;;
9496;SDS011;4786;51.270;4.456;2024-03-23T13:43:22;2.60;;;1.10;;
9496;SDS011;4786;51.270;4.456;2024-03-23T13:45:58;2.50;;;0.70;;
9496;SDS011;4786;51.270;4.456;2024-03-23T13:48:25;1.30;;;0.70;;
9496;SDS011;4786;51.270;4.456;2024-03-23T13:51:04;1.17;;;0.87;;
9496;SDS011;4786;51.270;4.456;2024-03-23T13:53:30;1.00;;;0.90;;
9496;SDS011;4786;51.270;4.456;2024-03-23T13:55:57;0.93;;;0.70;;
9496;SDS011;4786;51.270;4.456;2024-03-23T13:58:23;1.73;;;0.90;;
9496;SDS011;4786;51.270;4.456;2024-03-23T14:00:50;1.40;;;1.00;;
9496;SDS011;4786;51.270;4.456;2024-03-23T14:03:17;2.40;;;0.80;;
9496;SDS011;4786;51.270;4.456;2024-03-23T14:05:46;2.50;;;0.87;;
9496;SDS011;4786;51.270;4.456;2024-03-23T14:08:14;1.70;;;1.00;;
9496;SDS011;4786;51.270;4.456;2024-03-23T14:10:40;1.63;;;0.90;;
9496;SDS011;4786;51.270;4.456;2024-03-23T14:13:07;1.60;;;1.07;;
9496;SDS011;4786;51.270;4.456;2024-03-23T14:15:33;4.17;;;1.20;;
9496;SDS011;4786;51.270;4.456;2024-03-23T14:17:59;3.37;;;1.30;;
9496;SDS011;4786;51.270;4.456;2024-03-23T14:20:25;6.00;;;1.77;;
9496;SDS011;4786;51.270;4.456;2024-03-23T14:22:51;2.90;;;1.40;;
9496;SDS011;4786;51.270;4.456;2024-03-23T14:25:17;3.90;;;1.37;;
9496;SDS011;4786;51.270;4.456;2024-03-23T14:27:46;4.53;;;1.43;;
9496;SDS011;4786;51.270;4.456;2024-03-23T14:30:12;2.70;;;1.27;;
9496;SDS011;4786;51.270;4.456;2024-03-23T14:32:38;4.77;;;1.77;;
9496;SDS011;4786;51.270;4.456;2024-03-23T14:35:04;7.77;;;1.93;;
9496;SDS011;4786;51.270;4.456;2024-03-23T14:37:32;4.07;;;1.67;;
9496;SDS011;4786;51.270;4.456;2024-03-23T14:39:57;5.07;;;1.90;;
9496;SDS011;4786;51.270;4.456;2024-03-23T14:42:24;5.37;;;1.77;;
9496;SDS011;4786;51.270;4.456;2024-03-23T14:44:51;4.27;;;1.57;;
9496;SDS011;4786;51.270;4.456;2024-03-23T14:47:17;5.47;;;1.83;;
9496;SDS011;4786;51.270;4.456;2024-03-23T14:49:44;5.43;;;1.80;;
9496;SDS011;4786;51.270;4.456;2024-03-23T14:52:15;4.47;;;1.80;;
9496;SDS011;4786;51.270;4.456;2024-03-23T14:54:41;3.33;;;1.60;;
9496;SDS011;4786;51.270;4.456;2024-03-23T14:57:07;4.47;;;1.73;;
9496;SDS011;4786;51.270;4.456;2024-03-23T14:59:34;4.87;;;1.50;;
9496;SDS011;4786;51.270;4.456;2024-03-23T15:02:00;5.00;;;1.73;;
9496;SDS011;4786;51.270;4.456;2024-03-23T15:04:26;3.77;;;1.70;;
9496;SDS011;4786;51.270;4.456;2024-03-23T15:06:51;4.83;;;1.70;;
9496;SDS011;4786;51.270;4.456;2024-03-23T15:09:17;3.97;;;1.17;;
9496;SDS011;4786;51.270;4.456;2024-03-23T15:11:43;5.27;;;1.20;;
9496;SDS011;4786;51.270;4.456;2024-03-23T15:14:09;5.53;;;1.83;;
9496;SDS011;4786;51.270;4.456;2024-03-23T15:16:35;4.33;;;1.47;;
9496;SDS011;4786;51.270;4.456;2024-03-23T15:19:01;3.27;;;1.30;;
9496;SDS011;4786;51.270;4.456;2024-03-23T15:21:27;3.27;;;1.30;;
9496;SDS011;4786;51.270;4.456;2024-03-23T15:23:53;1.70;;;1.10;;
9496;SDS011;4786;51.270;4.456;2024-03-23T15:26:18;4.97;;;1.47;;
9496;SDS011;4786;51.270;4.456;2024-03-23T15:28:47;6.90;;;1.80;;
9496;SDS011;4786;51.270;4.456;2024-03-23T15:31:22;4.87;;;1.80;;
9496;SDS011;4786;51.270;4.456;2024-03-23T15:33:48;7.80;;;2.00;;
9496;SDS011;4786;51.270;4.456;2024-03-23T15:36:13;5.30;;;1.73;;
9496;SDS011;4786;51.270;4.456;2024-03-23T15:38:39;5.57;;;1.80;;
9496;SDS011;4786;51.270;4.456;2024-03-23T15:41:05;4.90;;;1.87;;
9496;SDS011;4786;51.270;4.456;2024-03-23T15:43:31;4.23;;;1.80;;
9496;SDS011;4786;51.270;4.456;2024-03-23T15:46:06;4.00;;;1.80;;
9496;SDS011;4786;51.270;4.456;2024-03-23T15:48:32;5.83;;;1.97;;
9496;SDS011;4786;51.270;4.456;2024-03-23T15:51:00;3.83;;;1.70;;
9496;SDS011;4786;51.270;4.456;2024-03-23T15:53:29;6.47;;;1.83;;
9496;SDS011;4786;51.270;4.456;2024-03-23T15:55:55;4.93;;;2.00;;
9496;SDS011;4786;51.270;4.456;2024-03-23T15:58:22;6.67;;;2.10;;
9496;SDS011;4786;51.270;4.456;2024-03-23T16:03:46;4.53;;;1.80;;
9496;SDS011;4786;51.270;4.456;2024-03-23T16:06:12;4.70;;;2.00;;
9496;SDS011;4786;51.270;4.456;2024-03-23T16:08:38;4.93;;;2.10;;
9496;SDS011;4786;51.270;4.456;2024-03-23T16:11:07;4.90;;;2.10;;
9496;SDS011;4786;51.270;4.456;2024-03-23T16:13:35;9.27;;;2.43;;
9496;SDS011;4786;51.270;4.456;2024-03-23T16:16:02;4.80;;;2.33;;
9496;SDS011;4786;51.270;4.456;2024-03-23T16:18:31;4.83;;;2.20;;